Time;durP1;ratioP1;P1;durP2;ratioP2;P2;SDS_P1;SDS_P2;PMS_P1;PMS_P2;Temp;Humidity;BMP_temperature;BMP_pressure;BME280_temperature;BME280_humidity;BME280_pressure;Samples;Min_cycle;Max_cycle;Signal;HPM_P1;HPM_P2
2022/07/04 00:00:15;;;;;;;16.03;8.73;;;14.80;90.70;;;;;;5053134;28;20228;-87
2022/07/04 00:02:43;;;;;;;21.00;8.47;;;14.80;91.10;;;;;;5053998;28;20183;-87
2022/07/04 00:05:10;;;;;;;16.50;8.97;;;14.70;91.30;;;;;;5054171;28;20531;-87
2022/07/04 00:07:44;;;;;;;22.83;10.07;;;14.80;91.40;;;;;;5053007;28;20176;-88
2022/07/04 00:10:12;;;;;;;19.53;10.20;;;14.70;91.70;;;;;;5052508;28;20179;-90
2022/07/04 00:12:38;;;;;;;16.97;10.67;;;14.60;91.80;;;;;;5052422;28;20253;-89
2022/07/04 00:15:05;;;;;;;13.73;10.13;;;14.60;92.00;;;;;;5052367;28;20176;-89
2022/07/04 00:17:31;;;;;;;18.20;10.43;;;14.70;92.10;;;;;;5052301;28;20251;-90
2022/07/04 00:19:57;;;;;;;20.73;11.70;;;14.60;92.20;;;;;;5053649;28;20191;-90
2022/07/04 00:22:22;;;;;;;15.80;9.67;;;14.60;92.20;;;;;;5052525;28;20196;-89
2022/07/04 00:24:48;;;;;;;17.43;10.73;;;14.60;92.20;;;;;;5052131;28;20234;-90
2022/07/04 00:27:14;;;;;;;17.60;10.20;;;14.70;92.20;;;;;;5052287;28;20176;-89
2022/07/04 00:29:39;;;;;;;16.47;10.80;;;14.70;92.00;;;;;;5053435;28;20183;-90
2022/07/04 00:32:05;;;;;;;16.77;9.60;;;14.70;92.10;;;;;;5052212;28;20243;-90
2022/07/04 00:34:31;;;;;;;24.83;9.87;;;14.60;92.00;;;;;;5052682;28;20179;-89
2022/07/04 00:36:56;;;;;;;15.27;8.67;;;14.50;92.00;;;;;;5052109;28;20217;-90
2022/07/04 00:39:22;;;;;;;20.07;10.03;;;14.60;92.00;;;;;;5052189;28;20263;-89
2022/07/04 00:41:48;;;;;;;19.60;10.10;;;14.60;91.80;;;;;;5051958;28;20261;-90
2022/07/04 00:44:15;;;;;;;18.27;10.20;;;14.60;91.70;;;;;;5053287;28;20176;-90
2022/07/04 00:46:42;;;;;;;20.87;11.40;;;14.50;91.80;;;;;;5052018;28;20525;-88
2022/07/04 00:49:08;;;;;;;20.37;11.83;;;14.50;91.70;;;;;;5052780;28;20180;-89
2022/07/04 00:51:36;;;;;;;18.47;12.33;;;14.40;91.90;;;;;;5051651;28;20207;-89
2022/07/04 00:54:02;;;;;;;24.13;12.33;;;14.40;92.00;;;;;;5051952;28;20175;-90
2022/07/04 00:56:27;;;;;;;20.20;13.30;;;14.40;92.10;;;;;;5051883;28;20172;-89
2022/07/04 00:58:53;;;;;;;22.80;14.00;;;14.40;92.30;;;;;;5051954;28;20175;-89
2022/07/04 01:01:20;;;;;;;17.07;14.30;;;14.30;92.30;;;;;;5051670;28;20685;-89
2022/07/04 01:03:46;;;;;;;25.80;15.67;;;14.30;92.60;;;;;;5051856;28;20593;-89
2022/07/04 01:06:14;;;;;;;20.70;15.93;;;14.30;92.70;;;;;;5053101;28;20244;-89
2022/07/04 01:08:42;;;;;;;21.17;16.77;;;14.30;92.80;;;;;;5051819;28;20172;-89
2022/07/04 01:11:08;;;;;;;29.03;17.17;;;14.30;92.80;;;;;;5051776;28;20200;-88
2022/07/04 01:13:34;;;;;;;25.20;17.67;;;14.30;92.90;;;;;;5051792;28;20182;-90
2022/07/04 01:16:00;;;;;;;26.73;17.60;;;14.30;93.00;;;;;;5052908;28;20542;-90
2022/07/04 01:18:26;;;;;;;31.93;17.43;;;14.30;92.90;;;;;;5051704;28;20172;-90
2022/07/04 01:20:51;;;;;;;20.80;16.20;;;14.40;92.90;;;;;;5052905;28;20203;-89
2022/07/04 01:23:17;;;;;;;29.27;18.40;;;14.40;92.90;;;;;;5052908;28;20688;-89
2022/07/04 01:25:43;;;;;;;20.33;16.70;;;14.40;92.90;;;;;;5052697;28;20235;-89
2022/07/04 01:28:09;;;;;;;26.07;17.23;;;14.40;93.00;;;;;;5051626;28;20195;-89
2022/07/04 01:30:36;;;;;;;27.10;15.80;;;14.40;93.00;;;;;;5052984;28;20200;-90
2022/07/04 01:33:02;;;;;;;18.93;14.13;;;14.40;93.00;;;;;;5051500;28;20199;-89
2022/07/04 01:35:28;;;;;;;23.07;13.47;;;14.40;93.00;;;;;;5052899;28;20187;-90
2022/07/04 01:37:54;;;;;;;27.30;15.20;;;14.40;92.90;;;;;;5051492;28;20178;-90
2022/07/04 01:40:19;;;;;;;19.80;13.90;;;14.40;92.80;;;;;;5052679;28;20168;-89
2022/07/04 01:42:45;;;;;;;22.57;13.17;;;14.30;92.80;;;;;;5052692;28;20168;-89
2022/07/04 01:45:12;;;;;;;19.30;13.50;;;14.30;92.60;;;;;;5052830;28;20176;-90
2022/07/04 01:47:38;;;;;;;26.10;13.10;;;14.30;92.70;;;;;;5051518;28;20183;-89
2022/07/04 01:50:06;;;;;;;13.60;11.60;;;14.30;92.50;;;;;;5051320;28;20180;-89
2022/07/04 01:52:32;;;;;;;23.13;12.13;;;14.30;92.40;;;;;;5051203;28;20761;-89
2022/07/04 01:54:58;;;;;;;17.30;11.17;;;14.30;92.30;;;;;;5051315;28;20250;-89
2022/07/04 01:57:23;;;;;;;20.93;12.03;;;14.30;92.30;;;;;;5052626;28;20172;-89
2022/07/04 02:02:33;;;;;;;22.10;12.17;;;14.30;92.30;;;;;;5053879;28;20219;-89
2022/07/04 02:04:58;;;;;;;22.83;12.60;;;14.20;92.40;;;;;;5054878;28;20552;-90
2022/07/04 02:07:24;;;;;;;20.60;12.73;;;14.20;92.40;;;;;;5054913;28;20187;-89
2022/07/04 02:09:50;;;;;;;20.30;12.83;;;14.20;92.40;;;;;;5055338;28;20183;-89
2022/07/04 02:14:59;;;;;;;20.30;14.10;;;14.00;92.70;;;;;;5055987;28;20209;-89
2022/07/04 02:17:25;;;;;;;23.30;15.33;;;14.00;92.70;;;;;;5054632;28;20271;-89
2022/07/04 02:19:51;;;;;;;19.67;13.63;;;14.00;92.90;;;;;;5055823;28;20172;-90
2022/07/04 02:22:17;;;;;;;26.77;15.17;;;14.00;93.00;;;;;;5054468;28;20211;-90
2022/07/04 02:24:42;;;;;;;22.77;14.83;;;13.90;93.10;;;;;;5054543;28;20611;-90
2022/07/04 02:27:08;;;;;;;28.57;14.40;;;13.90;93.10;;;;;;5054472;28;20330;-90
2022/07/04 02:29:35;;;;;;;20.07;14.13;;;14.00;93.10;;;;;;5054355;28;20184;-89
2022/07/04 02:32:01;;;;;;;24.47;12.90;;;13.90;93.00;;;;;;5054605;28;20208;-89
2022/07/04 02:34:27;;;;;;;21.17;13.83;;;13.90;93.10;;;;;;5054495;28;20182;-89
2022/07/04 02:36:53;;;;;;;23.87;12.63;;;13.90;93.00;;;;;;5054347;28;20212;-90
2022/07/04 02:39:18;;;;;;;20.27;13.37;;;13.90;93.00;;;;;;5055514;28;20257;-89
2022/07/04 02:41:44;;;;;;;20.97;13.57;;;13.90;92.90;;;;;;5054205;28;20239;-89
2022/07/04 02:44:10;;;;;;;18.77;13.43;;;13.90;92.90;;;;;;5054184;28;20560;-89
2022/07/04 02:46:36;;;;;;;26.73;15.00;;;13.80;92.90;;;;;;5055400;28;20164;-89
2022/07/04 02:49:02;;;;;;;23.63;16.43;;;13.80;93.00;;;;;;5054348;28;20186;-90
2022/07/04 02:51:28;;;;;;;25.57;16.40;;;13.80;92.90;;;;;;5053965;28;20210;-89
2022/07/04 02:53:53;;;;;;;21.10;17.57;;;13.80;92.90;;;;;;5054105;28;20270;-90
2022/07/04 02:56:19;;;;;;;24.87;18.43;;;13.80;93.00;;;;;;5055437;28;20176;-90
2022/07/04 02:58:45;;;;;;;27.50;19.47;;;13.80;93.20;;;;;;5055526;28;20190;-90
2022/07/04 03:01:12;;;;;;;28.47;19.93;;;13.80;93.20;;;;;;5053796;28;20235;-90
2022/07/04 03:03:39;;;;;;;31.90;19.13;;;13.70;93.20;;;;;;5053720;28;20185;-90
2022/07/04 03:06:05;;;;;;;26.47;19.00;;;13.70;93.30;;;;;;5053766;28;20176;-90
2022/07/04 03:08:31;;;;;;;27.77;19.73;;;13.70;93.30;;;;;;5053847;28;20634;-89
2022/07/04 03:10:56;;;;;;;28.20;21.73;;;13.70;93.40;;;;;;5053593;28;20196;-90
2022/07/04 03:13:22;;;;;;;31.10;19.77;;;13.70;93.60;;;;;;5052849;28;20208;-89
2022/07/04 03:15:47;;;;;;;29.47;20.53;;;13.70;93.70;;;;;;5053050;28;20642;-90
2022/07/04 03:18:13;;;;;;;30.73;21.57;;;13.70;93.80;;;;;;5054119;28;20176;-91
2022/07/04 03:20:39;;;;;;;34.80;22.87;;;13.70;93.90;;;;;;5054962;28;20245;-91
2022/07/04 03:23:04;;;;;;;27.83;20.53;;;13.80;93.90;;;;;;5058472;28;20172;-90
2022/07/04 03:25:30;;;;;;;23.80;19.73;;;13.80;93.90;;;;;;5056374;28;20612;-90
2022/07/04 03:27:55;;;;;;;25.60;18.07;;;13.80;93.80;;;;;;5056891;28;20279;-91
2022/07/04 03:30:21;;;;;;;23.67;18.97;;;13.80;93.70;;;;;;5055483;28;20176;-91
2022/07/04 03:32:46;;;;;;;24.53;18.20;;;13.80;93.70;;;;;;5056400;28;20258;-90
2022/07/04 03:35:12;;;;;;;28.10;19.03;;;13.90;93.70;;;;;;5057077;28;20199;-90
2022/07/04 03:37:37;;;;;;;23.17;17.63;;;13.80;93.60;;;;;;5057489;28;20229;-90
2022/07/04 03:40:04;;;;;;;23.10;16.47;;;13.90;93.50;;;;;;5055908;28;20233;-91
2022/07/04 03:42:29;;;;;;;23.70;16.50;;;14.00;93.60;;;;;;5055673;28;20199;-90
2022/07/04 03:44:55;;;;;;;23.70;16.77;;;13.90;93.50;;;;;;5056353;28;20768;-90
2022/07/04 03:47:21;;;;;;;27.00;17.57;;;14.00;93.40;;;;;;5055033;28;20267;-91
2022/07/04 03:49:46;;;;;;;27.83;18.07;;;14.00;93.40;;;;;;5055710;28;20175;-90
2022/07/04 03:52:12;;;;;;;27.77;16.13;;;14.20;93.30;;;;;;5055305;28;20269;-89
2022/07/04 03:54:37;;;;;;;24.67;16.87;;;14.20;93.20;;;;;;5055040;28;20310;-90
2022/07/04 03:57:03;;;;;;;18.57;15.20;;;14.30;93.10;;;;;;5055259;28;20172;-90
2022/07/04 03:59:29;;;;;;;24.53;15.07;;;14.30;92.90;;;;;;5055559;28;20202;-90
2022/07/04 04:01:54;;;;;;;20.40;14.30;;;14.30;92.90;;;;;;5057661;28;20230;-90
2022/07/04 04:07:15;;;;;;;16.63;12.47;;;14.40;92.50;;;;;;5020237;28;20239;-90
2022/07/04 04:09:40;;;;;;;14.37;11.03;;;14.50;92.30;;;;;;5055757;28;20656;-91
2022/07/04 04:12:06;;;;;;;19.40;10.47;;;14.80;92.30;;;;;;5055446;28;20215;-90
2022/07/04 04:14:32;;;;;;;12.67;10.67;;;14.70;91.70;;;;;;5055808;28;20183;-90
2022/07/04 04:16:57;;;;;;;14.80;9.80;;;14.70;91.70;;;;;;5057590;28;20672;-90
2022/07/04 04:19:23;;;;;;;14.20;10.07;;;14.80;91.70;;;;;;5055571;28;20257;-90
2022/07/04 04:21:48;;;;;;;14.53;9.13;;;14.80;91.50;;;;;;5055057;28;20231;-91
2022/07/04 04:24:14;;;;;;;14.90;8.73;;;14.80;91.30;;;;;;5056718;28;20187;-91
2022/07/04 04:26:39;;;;;;;16.67;9.00;;;14.80;91.30;;;;;;5055486;28;20523;-90
2022/07/04 04:29:05;;;;;;;12.93;8.47;;;14.80;91.30;;;;;;5053612;28;20180;-91
2022/07/04 04:31:30;;;;;;;8.67;7.63;;;14.70;91.50;;;;;;5054039;28;20206;-90
2022/07/04 04:33:57;;;;;;;10.97;7.40;;;14.70;91.40;;;;;;5054957;28;20168;-90
2022/07/04 04:36:23;;;;;;;17.30;7.73;;;14.70;91.40;;;;;;5054541;28;20176;-90
2022/07/04 04:38:48;;;;;;;15.33;7.17;;;14.70;91.40;;;;;;5053523;28;20317;-90
2022/07/04 04:41:16;;;;;;;10.57;6.60;;;14.70;91.30;;;;;;5053565;28;20206;-90
2022/07/04 04:43:41;;;;;;;7.30;6.30;;;14.70;91.20;;;;;;5054242;28;20218;-91
2022/07/04 04:46:07;;;;;;;10.13;6.90;;;14.70;91.10;;;;;;5054895;28;20249;-90
2022/07/04 04:48:32;;;;;;;14.20;6.30;;;14.80;91.10;;;;;;5053726;28;20553;-90
2022/07/04 04:50:58;;;;;;;10.80;6.37;;;14.80;90.90;;;;;;5054607;28;20215;-91
2022/07/04 04:53:25;;;;;;;10.93;6.63;;;14.80;90.70;;;;;;5054266;28;20708;-90
2022/07/04 04:55:52;;;;;;;10.23;6.47;;;14.80;91.00;;;;;;5054045;28;20271;-90
2022/07/04 04:58:18;;;;;;;15.87;6.53;;;14.80;91.00;;;;;;5055933;28;20176;-90
2022/07/04 05:00:44;;;;;;;7.37;6.60;;;14.80;90.90;;;;;;5054720;28;20206;-91
2022/07/04 05:03:09;;;;;;;12.13;5.93;;;14.90;90.90;;;;;;5054248;28;20184;-90
2022/07/04 05:05:35;;;;;;;10.27;6.13;;;14.90;90.80;;;;;;5053742;28;20176;-90
2022/07/04 05:08:00;;;;;;;13.13;6.23;;;14.90;90.70;;;;;;5054310;28;20638;-90
2022/07/04 05:10:26;;;;;;;9.53;5.93;;;14.90;90.50;;;;;;5054514;28;20634;-90
2022/07/04 05:12:52;;;;;;;8.87;5.40;;;15.00;90.60;;;;;;5054378;28;20201;-90
2022/07/04 05:15:17;;;;;;;8.27;5.03;;;15.00;90.00;;;;;;5054283;28;20194;-90
2022/07/04 05:17:43;;;;;;;11.07;5.67;;;15.00;90.30;;;;;;5053727;28;20178;-90
2022/07/04 05:20:09;;;;;;;8.87;5.63;;;15.10;90.50;;;;;;5053815;28;20179;-91
2022/07/04 05:22:35;;;;;;;10.10;5.53;;;15.10;90.30;;;;;;5054730;28;20206;-90
2022/07/04 05:25:01;;;;;;;12.53;5.73;;;15.20;90.20;;;;;;5055364;28;20565;-92
2022/07/04 05:27:26;;;;;;;8.50;5.17;;;15.20;89.80;;;;;;5054923;28;20207;-91
2022/07/04 05:29:52;;;;;;;8.37;5.57;;;15.30;90.00;;;;;;5055368;28;20176;-91
2022/07/04 05:32:17;;;;;;;5.97;4.80;;;15.40;89.60;;;;;;5053957;28;20220;-91
2022/07/04 05:34:43;;;;;;;12.43;5.50;;;15.40;89.50;;;;;;5055075;28;20172;-91
2022/07/04 05:37:09;;;;;;;8.67;5.03;;;15.50;89.50;;;;;;5055791;28;20180;-90
2022/07/04 05:39:34;;;;;;;11.80;5.30;;;15.70;89.40;;;;;;5061296;28;20190;-90
2022/07/04 05:42:00;;;;;;;11.52;5.72;;;15.70;89.00;;;;;;5059397;28;20214;-90
2022/07/04 05:44:25;;;;;;;15.57;6.37;;;15.70;89.20;;;;;;5061084;28;20560;-92
2022/07/04 05:46:51;;;;;;;11.90;4.80;;;15.70;88.90;;;;;;5059872;28;20179;-91
2022/07/04 05:49:17;;;;;;;8.27;5.18;;;15.70;88.70;;;;;;5058956;28;20175;-91
2022/07/04 05:51:42;;;;;;;7.73;5.03;;;15.80;89.00;;;;;;5059602;28;20254;-91
2022/07/04 05:54:08;;;;;;;7.82;5.10;;;15.90;88.70;;;;;;5059766;28;20184;-90
2022/07/04 05:56:33;;;;;;;7.00;5.05;;;15.90;88.20;;;;;;5059367;28;20172;-90
2022/07/04 05:58:59;;;;;;;8.57;5.18;;;15.90;87.70;;;;;;5058731;28;20172;-90
2022/07/04 06:01:25;;;;;;;6.67;5.17;;;15.90;87.60;;;;;;5060161;28;20188;-91
2022/07/04 06:03:51;;;;;;;6.45;4.55;;;15.90;87.50;;;;;;5059033;28;20290;-90
2022/07/04 06:06:17;;;;;;;8.32;5.28;;;15.90;87.10;;;;;;5059124;28;20203;-90
2022/07/04 06:08:42;;;;;;;17.15;4.70;;;16.00;87.20;;;;;;5057625;28;20175;-90
2022/07/04 06:11:08;;;;;;;10.00;4.43;;;16.00;86.80;;;;;;5059538;28;20268;-90
2022/07/04 06:13:34;;;;;;;12.02;4.60;;;16.10;86.60;;;;;;5057920;28;20204;-91
2022/07/04 06:15:59;;;;;;;9.13;4.28;;;16.10;86.30;;;;;;5060217;28;20191;-91
2022/07/04 06:18:27;;;;;;;5.35;3.97;;;16.20;86.30;;;;;;5059900;28;20267;-90
2022/07/04 06:20:52;;;;;;;9.65;4.03;;;16.20;85.90;;;;;;5061272;28;20184;-89
2022/07/04 06:23:18;;;;;;;8.48;4.28;;;16.30;85.60;;;;;;5061721;28;20184;-91
2022/07/04 06:25:43;;;;;;;7.97;3.72;;;16.40;86.00;;;;;;5059821;28;20248;-90
2022/07/04 06:28:09;;;;;;;7.50;4.35;;;16.40;85.50;;;;;;5058133;28;20191;-90
2022/07/04 06:30:35;;;;;;;8.50;4.05;;;16.60;85.50;;;;;;5058929;28;20227;-89
2022/07/04 06:33:00;;;;;;;7.97;4.43;;;16.60;85.30;;;;;;5059228;28;20257;-91
2022/07/04 06:38:18;;;;;;;12.02;3.88;;;16.80;85.00;;;;;;5060330;28;20210;-92
2022/07/04 06:40:44;;;;;;;11.05;3.70;;;16.70;83.80;;;;;;5056325;28;20196;-90
2022/07/04 06:43:10;;;;;;;7.60;3.30;;;16.90;84.30;;;;;;5055514;28;20187;-91
2022/07/04 06:45:36;;;;;;;10.48;3.88;;;16.80;83.60;;;;;;5055816;28;20184;-91
2022/07/04 06:48:03;;;;;;;8.95;3.50;;;16.90;83.80;;;;;;5055761;28;20283;-91
2022/07/04 06:50:32;;;;;;;8.25;3.20;;;16.80;82.50;;;;;;5056434;28;20203;-90
2022/07/04 06:53:05;;;;;;;6.18;3.10;;;17.00;83.10;;;;;;5055625;28;20236;-91
2022/07/04 06:55:31;;;;;;;6.80;3.00;;;17.00;82.40;;;;;;5056307;28;20214;-91
2022/07/04 06:57:57;;;;;;;6.60;3.42;;;17.10;82.70;;;;;;5055830;28;20186;-91
2022/07/04 07:00:23;;;;;;;7.82;3.40;;;17.00;81.00;;;;;;5055889;28;20263;-91
2022/07/04 07:02:48;;;;;;;7.60;3.30;;;17.00;82.00;;;;;;5056371;28;20176;-91
2022/07/04 07:05:14;;;;;;;8.63;3.20;;;17.10;81.50;;;;;;5056030;28;20172;-91
2022/07/04 07:07:40;;;;;;;5.55;2.83;;;17.10;80.50;;;;;;5055231;28;20172;-90
2022/07/04 07:10:06;;;;;;;4.95;2.58;;;17.20;80.70;;;;;;5055163;28;20187;-90
2022/07/04 07:12:33;;;;;;;7.28;2.67;;;17.20;79.60;;;;;;5055458;28;20204;-91
2022/07/04 07:14:59;;;;;;;8.77;3.00;;;17.40;80.40;;;;;;5054556;28;20176;-90
2022/07/04 07:17:25;;;;;;;10.30;3.58;;;17.30;79.20;;;;;;5055654;28;20638;-92
2022/07/04 07:19:50;;;;;;;5.97;2.95;;;17.40;80.30;;;;;;5055896;28;20179;-92
2022/07/04 07:22:16;;;;;;;8.88;3.35;;;17.40;79.70;;;;;;5057149;28;20204;-90
2022/07/04 07:24:42;;;;;;;7.30;2.53;;;17.50;79.30;;;;;;5056208;28;20192;-89
2022/07/04 07:27:08;;;;;;;6.88;2.35;;;17.50;79.50;;;;;;5056383;28;20175;-91
2022/07/04 07:29:35;;;;;;;6.13;2.25;;;17.70;79.10;;;;;;5054371;28;20187;-89
2022/07/04 07:32:01;;;;;;;8.73;2.95;;;17.70;77.90;;;;;;5056185;28;20207;-91
2022/07/04 07:34:26;;;;;;;5.03;2.13;;;17.70;76.80;;;;;;5055509;28;20202;-91
2022/07/04 07:36:52;;;;;;;4.95;1.73;;;17.70;77.10;;;;;;5055949;28;20180;-89
2022/07/04 07:39:18;;;;;;;6.20;1.73;;;17.70;77.40;;;;;;5055067;28;20188;-91
2022/07/04 07:41:44;;;;;;;5.40;2.10;;;18.00;76.60;;;;;;5056422;28;20275;-91
2022/07/04 07:44:09;;;;;;;6.38;2.10;;;17.80;76.70;;;;;;5056784;28;20180;-91
2022/07/04 07:46:35;;;;;;;7.03;1.92;;;18.10;77.80;;;;;;5056744;28;20184;-92
2022/07/04 07:49:00;;;;;;;5.38;1.70;;;18.30;76.50;;;;;;5054743;28;20191;-92
2022/07/04 07:51:26;;;;;;;6.20;1.77;;;18.20;75.20;;;;;;5054853;28;20199;-92
2022/07/04 07:53:52;;;;;;;5.72;2.00;;;18.30;74.40;;;;;;5055892;28;20168;-91
2022/07/04 07:56:17;;;;;;;7.63;1.52;;;18.20;75.00;;;;;;5053674;28;20172;-90
2022/07/04 07:58:43;;;;;;;6.18;1.65;;;18.40;74.00;;;;;;5053599;28;20176;-90
2022/07/04 08:01:08;;;;;;;7.45;1.50;;;18.60;73.10;;;;;;5053571;28;20283;-89
2022/07/04 08:06:18;;;;;;;4.40;1.30;;;18.20;73.70;;;;;;5057501;28;20172;-90
2022/07/04 08:08:44;;;;;;;3.65;1.17;;;18.20;74.10;;;;;;5053921;28;20172;-91
2022/07/04 08:11:11;;;;;;;5.57;1.60;;;18.30;73.00;;;;;;5053852;28;20204;-90
2022/07/04 08:13:37;;;;;;;3.45;1.42;;;18.30;73.20;;;;;;5054462;28;20299;-90
2022/07/04 08:16:03;;;;;;;4.53;1.30;;;18.30;71.40;;;;;;5055653;28;20168;-90
2022/07/04 08:18:29;;;;;;;2.40;1.55;;;18.50;71.20;;;;;;5055043;28;20168;-90
2022/07/04 08:20:54;;;;;;;4.63;1.30;;;18.60;71.60;;;;;;5053049;28;20259;-90
2022/07/04 08:23:20;;;;;;;3.03;1.23;;;18.50;72.00;;;;;;5053572;28;20183;-89
2022/07/04 08:25:46;;;;;;;2.65;1.52;;;18.50;72.00;;;;;;5053462;28;20200;-90
2022/07/04 08:28:13;;;;;;;2.92;1.40;;;18.60;71.40;;;;;;5052833;28;20274;-89
2022/07/04 08:30:38;;;;;;;5.60;1.50;;;18.90;71.90;;;;;;5052787;28;20282;-92
2022/07/04 08:33:10;;;;;;;5.53;1.35;;;18.90;70.00;;;;;;5053374;28;20638;-90
2022/07/04 08:35:35;;;;;;;4.40;1.85;;;18.90;68.80;;;;;;5053752;28;20179;-91
2022/07/04 08:38:01;;;;;;;5.18;1.38;;;18.80;69.70;;;;;;5054604;28;20179;-90
2022/07/04 08:40:28;;;;;;;4.03;1.20;;;18.50;71.10;;;;;;5052897;28;20218;-90
2022/07/04 08:42:54;;;;;;;2.35;1.00;;;18.80;71.90;;;;;;5053781;28;20300;-91
2022/07/04 08:45:34;;;;;;;3.97;1.23;;;18.80;69.80;;;;;;5053250;28;20218;-90
2022/07/04 08:48:08;;;;;;;2.92;1.10;;;18.90;69.90;;;;;;5053831;28;20542;-91
2022/07/04 08:50:57;;;;;;;5.30;1.65;;;18.90;71.90;;;;;;5052973;28;20693;-91
2022/07/04 08:53:27;;;;;;;7.03;1.77;;;18.90;70.70;;;;;;5052369;28;20767;-90
2022/07/04 08:58:39;;;;;;;2.92;1.30;;;19.40;67.10;;;;;;5057485;28;20179;-92
2022/07/04 09:01:14;;;;;;;5.25;2.63;;;19.50;66.70;;;;;;5056121;28;20674;-92
2022/07/04 09:03:42;;;;;;;4.68;1.20;;;19.30;68.00;;;;;;5055426;28;20167;-92
2022/07/04 09:06:08;;;;;;;3.80;1.58;;;19.50;68.80;;;;;;5055362;28;20669;-90
2022/07/04 09:08:33;;;;;;;5.07;1.63;;;19.30;68.00;;;;;;5053489;28;20650;-88
2022/07/04 09:11:00;;;;;;;6.40;2.85;;;19.40;69.20;;;;;;5052471;28;20206;-88
2022/07/04 09:13:25;;;;;;;6.15;1.30;;;19.60;69.60;;;;;;5056124;28;20206;-87
2022/07/04 09:15:51;;;;;;;2.97;1.10;;;19.80;68.20;;;;;;5056300;28;20593;-89
2022/07/04 09:18:35;;;;;;;3.17;1.10;;;20.00;67.40;;;;;;5057521;28;20206;-89
2022/07/04 09:21:03;;;;;;;3.53;1.40;;;20.50;67.30;;;;;;5056656;28;20246;-88
2022/07/04 09:23:33;;;;;;;2.97;1.30;;;20.20;65.60;;;;;;5056125;28;20630;-88
2022/07/04 09:26:25;;;;;;;4.88;1.48;;;20.20;65.70;;;;;;5055941;28;20194;-88
2022/07/04 09:28:56;;;;;;;7.43;1.67;;;20.50;65.90;;;;;;5052836;28;20347;-89
2022/07/04 09:31:31;;;;;;;2.40;0.80;;;20.30;65.40;;;;;;5056783;28;20716;-88
2022/07/04 09:34:05;;;;;;;4.82;1.23;;;20.30;64.70;;;;;;5057848;28;20151;-89
2022/07/04 09:36:38;;;;;;;3.60;0.95;;;20.70;65.10;;;;;;5056252;28;20211;-89
2022/07/04 09:39:12;;;;;;;2.67;1.08;;;20.60;64.10;;;;;;5057319;28;20183;-89
2022/07/04 09:42:01;;;;;;;1.70;0.98;;;20.30;64.00;;;;;;5057076;28;20271;-90
2022/07/04 09:44:26;;;;;;;2.70;0.98;;;20.50;65.60;;;;;;5055893;28;20172;-90
2022/07/04 09:46:52;;;;;;;3.03;1.02;;;20.70;64.10;;;;;;5055615;28;20176;-89
2022/07/04 09:49:18;;;;;;;1.30;0.90;;;20.30;63.30;;;;;;5055808;28;20171;-88
2022/07/04 09:51:48;;;;;;;5.30;0.95;;;20.00;60.80;;;;;;5056210;28;20193;-90
2022/07/04 09:54:26;;;;;;;2.17;0.80;;;20.30;63.60;;;;;;5056967;28;20171;-89
2022/07/04 09:56:54;;;;;;;2.83;1.02;;;20.50;61.80;;;;;;5055918;28;20183;-90
2022/07/04 09:59:21;;;;;;;4.18;1.05;;;20.50;64.70;;;;;;5057848;28;20176;-91
2022/07/04 10:01:47;;;;;;;3.35;1.00;;;20.80;63.90;;;;;;5056354;28;20188;-91
2022/07/04 10:04:13;;;;;;;1.63;1.00;;;20.60;63.40;;;;;;5057186;28;20559;-90
2022/07/04 10:06:41;;;;;;;1.17;0.95;;;20.50;61.80;;;;;;5057137;28;20168;-90
2022/07/04 10:09:28;;;;;;;2.38;0.90;;;20.50;63.50;;;;;;5056310;28;20179;-89
2022/07/04 10:11:54;;;;;;;3.67;1.13;;;20.80;63.10;;;;;;5055332;28;20207;-90
2022/07/04 10:14:20;;;;;;;1.73;0.77;;;20.70;62.20;;;;;;5056438;28;20178;-90
2022/07/04 10:16:45;;;;;;;2.15;1.00;;;20.90;62.10;;;;;;5057154;28;20172;-91
2022/07/04 10:19:12;;;;;;;4.32;1.42;;;21.20;62.80;;;;;;5056756;28;20577;-89
2022/07/04 10:21:38;;;;;;;3.90;1.60;;;21.20;60.50;;;;;;5055286;28;20192;-90
2022/07/04 10:24:04;;;;;;;3.28;1.23;;;21.40;59.40;;;;;;5053987;28;20237;-90
2022/07/04 10:26:30;;;;;;;5.93;1.38;;;21.10;59.80;;;;;;5054829;28;20168;-89
2022/07/04 10:28:56;;;;;;;4.38;1.08;;;21.00;61.10;;;;;;5054613;28;20219;-90
2022/07/04 10:31:25;;;;;;;5.57;1.20;;;20.80;60.80;;;;;;5054591;28;20605;-88
2022/07/04 10:33:52;;;;;;;2.78;1.35;;;20.90;61.60;;;;;;5055189;28;20738;-91
2022/07/04 10:36:22;;;;;;;5.57;1.20;;;21.00;61.60;;;;;;5055770;28;20175;-90
2022/07/04 10:38:51;;;;;;;3.58;1.33;;;21.20;60.30;;;;;;5055411;28;20318;-91
2022/07/04 10:41:21;;;;;;;3.25;1.25;;;21.30;63.80;;;;;;5055213;28;20195;-90
2022/07/04 10:44:07;;;;;;;3.85;1.30;;;21.00;60.10;;;;;;5054549;28;20164;-90
2022/07/04 10:46:38;;;;;;;3.47;1.15;;;21.60;61.70;;;;;;5054623;28;20213;-91
2022/07/04 10:49:16;;;;;;;6.22;1.20;;;21.80;60.70;;;;;;5056071;28;20179;-90
2022/07/04 10:51:46;;;;;;;9.43;1.42;;;21.50;61.00;;;;;;5054222;28;20282;-90
2022/07/04 10:54:13;;;;;;;4.97;1.10;;;21.20;60.90;;;;;;5054373;28;20172;-89
2022/07/04 10:56:41;;;;;;;3.80;1.08;;;21.40;61.00;;;;;;5055479;28;20180;-91
2022/07/04 10:59:19;;;;;;;6.57;1.70;;;20.80;61.50;;;;;;5054473;28;20259;-90
2022/07/04 11:02:11;;;;;;;3.83;1.10;;;20.70;61.30;;;;;;5054132;28;20222;-90
2022/07/04 11:04:51;;;;;;;4.15;1.05;;;21.00;61.70;;;;;;5032541;28;20192;-90
2022/07/04 11:07:37;;;;;;;4.80;1.30;;;20.80;60.70;;;;;;5054076;28;20282;-90
2022/07/04 11:10:12;;;;;;;3.38;1.13;;;20.90;63.10;;;;;;5044545;28;20186;-90
2022/07/04 11:12:56;;;;;;;3.30;1.23;;;20.80;59.80;;;;;;5053767;28;20203;-90
2022/07/04 11:15:44;;;;;;;5.78;1.40;;;20.60;62.20;;;;;;5054185;28;20176;-90
2022/07/04 11:18:12;;;;;;;4.82;1.15;;;21.00;60.40;;;;;;5045698;28;20188;-90
2022/07/04 11:20:43;;;;;;;6.43;1.05;;;20.70;61.10;;;;;;5053768;28;20200;-90
2022/07/04 11:23:16;;;;;;;3.13;1.35;;;20.80;60.70;;;;;;5053614;28;20558;-89
2022/07/04 11:25:44;;;;;;;2.25;1.30;;;20.60;60.70;;;;;;5053606;28;20243;-89
2022/07/04 11:28:30;;;;;;;3.38;1.13;;;20.80;60.40;;;;;;5054005;28;20180;-89
2022/07/04 11:30:57;;;;;;;3.08;1.27;;;21.30;60.30;;;;;;5054844;28;20245;-90
2022/07/04 11:33:26;;;;;;;5.75;1.00;;;21.50;58.70;;;;;;5053467;28;20226;-90
2022/07/04 11:36:21;;;;;;;2.63;1.10;;;21.70;59.10;;;;;;5052503;28;20169;-90
2022/07/04 11:38:51;;;;;;;7.53;1.00;;;21.90;57.40;;;;;;5036475;28;20183;-89
2022/07/04 11:46:48;;;;;;;3.10;1.20;;;22.60;58.00;;;;;;5055139;28;20187;-91
2022/07/04 11:49:14;;;;;;;2.90;1.10;;;21.70;56.70;;;;;;5053186;28;20180;-90
2022/07/04 11:51:47;;;;;;;3.78;1.40;;;22.10;60.30;;;;;;5054326;28;20192;-90
2022/07/04 11:54:13;;;;;;;6.10;1.50;;;22.40;59.10;;;;;;5053225;28;20179;-90
2022/07/04 11:56:38;;;;;;;3.22;1.15;;;22.40;57.40;;;;;;5054177;28;20176;-89
2022/07/04 11:59:12;;;;;;;3.40;1.00;;;22.10;58.70;;;;;;5053069;28;20661;-89
2022/07/04 12:01:38;;;;;;;3.10;1.00;;;21.50;57.00;;;;;;5052753;28;20199;-91
2022/07/04 12:04:12;;;;;;;3.92;1.00;;;21.20;60.00;;;;;;5053006;28;20180;-90
2022/07/04 12:06:38;;;;;;;4.30;1.17;;;21.80;60.00;;;;;;5054294;28;20168;-90
2022/07/04 12:09:04;;;;;;;5.40;1.30;;;22.00;58.70;;;;;;5052821;28;20732;-90
2022/07/04 12:11:49;;;;;;;9.18;1.40;;;21.70;58.60;;;;;;5053496;28;20192;-90
2022/07/04 12:14:15;;;;;;;4.00;1.30;;;21.30;60.10;;;;;;5052901;28;20187;-90
2022/07/04 12:16:40;;;;;;;3.15;1.10;;;21.20;61.40;;;;;;5052758;28;20187;-89
2022/07/04 12:19:12;;;;;;;4.18;1.38;;;21.50;61.30;;;;;;5053837;28;20521;-90
2022/07/04 12:21:38;;;;;;;3.25;1.20;;;21.60;61.30;;;;;;5055385;28;20196;-89
2022/07/04 12:24:04;;;;;;;3.40;1.23;;;22.10;60.90;;;;;;5052826;28;20211;-90
2022/07/04 12:26:31;;;;;;;2.53;1.00;;;22.20;57.70;;;;;;5052780;28;20203;-89
2022/07/04 12:28:57;;;;;;;5.50;1.27;;;22.10;58.20;;;;;;5052502;28;20179;-89
2022/07/04 12:31:43;;;;;;;4.18;1.08;;;21.50;57.70;;;;;;5052710;28;20241;-90
2022/07/04 12:34:16;;;;;;;2.63;1.10;;;21.30;59.90;;;;;;5052493;28;20182;-90
2022/07/04 12:36:55;;;;;;;4.63;1.38;;;21.50;59.20;;;;;;5052358;28;20175;-90
2022/07/04 12:39:32;;;;;;;5.07;1.50;;;21.60;58.00;;;;;;5052498;28;20234;-89
2022/07/04 12:42:11;;;;;;;4.30;1.55;;;21.10;60.00;;;;;;5052696;28;20196;-89
2022/07/04 12:44:39;;;;;;;4.93;1.42;;;21.10;61.10;;;;;;5052547;28;20258;-89
2022/07/04 12:47:05;;;;;;;3.70;1.65;;;21.20;61.20;;;;;;5053229;28;20176;-90
2022/07/04 12:49:32;;;;;;;8.02;1.60;;;21.10;60.40;;;;;;5052301;28;20172;-89
2022/07/04 12:52:09;;;;;;;6.15;1.92;;;21.00;61.80;;;;;;5052072;28;20204;-88
2022/07/04 12:54:35;;;;;;;4.95;1.73;;;21.20;61.50;;;;;;5051957;28;20206;-89
2022/07/04 12:57:11;;;;;;;4.13;1.42;;;21.20;61.10;;;;;;5052170;28;20643;-89
2022/07/04 12:59:37;;;;;;;4.63;1.42;;;21.30;60.70;;;;;;5052529;28;20179;-89
2022/07/04 13:02:03;;;;;;;6.50;1.40;;;21.50;62.30;;;;;;5052550;28;20199;-90